Time;durP1;ratioP1;P1;durP2;ratioP2;P2;SDS_P1;SDS_P2;PMS_P1;PMS_P2;Temp;Humidity;BMP_temperature;BMP_pressure;BME280_temperature;BME280_humidity;BME280_pressure;Samples;Min_cycle;Max_cycle;Signal;HPM_P1;HPM_P2
2022/02/24 00:00:12;;;;;;;14.35;8.03;;;;;;;5.58;67.62;100843.85;1742481;81;21120;-73
2022/02/24 00:02:39;;;;;;;14.45;8.65;;;;;;;5.57;67.65;100840.91;1736999;81;21022;-73
2022/02/24 00:05:07;;;;;;;15.08;8.53;;;;;;;5.61;67.67;100843.42;1736044;81;21104;-72
2022/02/24 00:07:34;;;;;;;14.05;8.35;;;;;;;5.64;67.64;100842.98;1735084;81;21072;-72
2022/02/24 00:10:01;;;;;;;15.93;8.55;;;;;;;5.66;67.62;100847.57;1747848;81;20955;-72
2022/02/24 00:12:30;;;;;;;13.58;8.33;;;;;;;5.70;67.60;100850.59;1745367;80;21571;-71
2022/02/24 00:14:58;;;;;;;13.13;8.28;;;;;;;5.69;67.59;100848.95;1753984;79;20954;-73
2022/02/24 00:17:25;;;;;;;13.05;8.10;;;;;;;5.71;67.59;100849.56;1739292;81;21090;-73
2022/02/24 00:19:51;;;;;;;13.50;8.20;;;;;;;5.68;67.56;100849.47;1736752;81;20994;-73
2022/02/24 00:22:18;;;;;;;14.60;7.75;;;;;;;5.65;67.56;100851.23;1743493;81;21529;-75
2022/02/24 00:24:45;;;;;;;13.40;8.18;;;;;;;5.62;67.53;100852.98;1755016;79;21096;-73
2022/02/24 00:27:12;;;;;;;12.28;8.18;;;;;;;5.56;67.53;100848.06;1762740;79;21041;-74
2022/02/24 00:29:39;;;;;;;14.15;7.95;;;;;;;5.53;67.61;100845.84;1750272;81;21448;-74
2022/02/24 00:32:06;;;;;;;13.88;7.58;;;;;;;5.55;67.69;100849.06;1737797;81;20992;-74
2022/02/24 00:34:34;;;;;;;14.73;7.90;;;;;;;5.59;67.73;100842.33;1736425;81;21008;-74
2022/02/24 00:37:01;;;;;;;13.03;8.15;;;;;;;5.61;67.71;100847.39;1750416;80;21022;-75
2022/02/24 00:39:28;;;;;;;12.55;7.17;;;;;;;5.61;67.78;100846.07;1750137;81;20978;-73
2022/02/24 00:41:56;;;;;;;11.78;7.53;;;;;;;5.62;67.76;100848.48;1757198;81;21536;-73
2022/02/24 00:44:23;;;;;;;13.88;7.95;;;;;;;5.61;67.73;100853.50;1753178;79;21049;-72
2022/02/24 00:46:49;;;;;;;13.85;8.00;;;;;;;5.59;67.73;100846.79;1738935;81;21038;-72
2022/02/24 00:49:18;;;;;;;12.93;7.67;;;;;;;5.59;67.73;100845.47;1739636;81;21029;-72
2022/02/24 00:51:45;;;;;;;13.22;7.58;;;;;;;5.54;67.73;100851.95;1758277;79;21252;-73
2022/02/24 00:54:13;;;;;;;12.50;7.47;;;;;;;5.52;67.79;100856.12;1763799;79;21105;-74
2022/02/24 00:56:40;;;;;;;15.48;8.38;;;;;;;5.53;67.90;100859.08;1757716;79;21041;-73
2022/02/24 00:59:07;;;;;;;12.47;7.87;;;;;;;5.54;67.94;100862.54;1759926;79;21003;-72
2022/02/24 01:01:33;;;;;;;15.10;8.18;;;;;;;5.52;67.93;100857.96;1745346;79;21108;-73
2022/02/24 01:04:00;;;;;;;14.18;8.23;;;;;;;5.49;67.90;100861.84;1748895;79;20974;-73
2022/02/24 01:06:27;;;;;;;15.43;8.23;;;;;;;5.48;67.91;100862.08;1736640;81;21471;-72
2022/02/24 01:08:56;;;;;;;11.25;7.47;;;;;;;5.43;67.94;100869.84;1736008;82;21130;-73
2022/02/24 01:11:22;;;;;;;13.75;8.65;;;;;;;5.35;68.04;100865.11;1735267;81;21021;-73
2022/02/24 01:13:49;;;;;;;15.30;8.75;;;;;;;5.31;68.17;100876.36;1736583;81;21052;-73
2022/02/24 01:16:15;;;;;;;13.22;7.85;;;;;;;5.29;68.34;100876.55;1736736;81;21496;-72
2022/02/24 01:18:43;;;;;;;14.63;8.60;;;;;;;5.27;68.50;100875.98;1765665;80;21896;-73
2022/02/24 01:21:11;;;;;;;16.55;9.13;;;;;;;5.30;68.57;100882.17;1767057;79;21529;-73
2022/02/24 01:23:38;;;;;;;13.40;8.58;;;;;;;5.33;68.62;100881.75;1756730;81;21045;-73
2022/02/24 01:26:04;;;;;;;14.28;8.63;;;;;;;5.34;68.64;100883.36;1753213;79;21112;-73
2022/02/24 01:28:31;;;;;;;15.43;8.83;;;;;;;5.37;68.65;100888.75;1753472;81;20966;-73
2022/02/24 01:30:59;;;;;;;17.10;9.30;;;;;;;5.36;68.67;100890.59;1747505;79;21551;-72
2022/02/24 01:33:26;;;;;;;13.75;9.13;;;;;;;5.36;68.72;100891.92;1759521;79;21485;-73
2022/02/24 01:35:52;;;;;;;14.75;8.43;;;;;;;5.38;68.74;100888.52;1752792;79;20986;-73
2022/02/24 01:38:21;;;;;;;14.35;8.30;;;;;;;5.37;68.74;100882.13;1748045;79;21126;-72
2022/02/24 01:40:48;;;;;;;15.18;8.93;;;;;;;5.31;68.75;100881.66;1789337;78;20991;-73
2022/02/24 01:43:17;;;;;;;14.20;9.10;;;;;;;5.26;68.84;100883.61;1778580;78;21159;-74
2022/02/24 01:45:44;;;;;;;16.75;9.05;;;;;;;5.22;68.91;100881.61;1765518;80;21571;-74
2022/02/24 01:48:11;;;;;;;14.10;8.10;;;;;;;5.16;69.01;100888.56;1770675;78;21112;-73
2022/02/24 01:50:39;;;;;;;14.18;8.35;;;;;;;5.12;69.11;100890.02;1776590;78;21152;-73
2022/02/24 01:53:06;;;;;;;13.43;8.40;;;;;;;5.09;69.21;100892.57;1797028;78;21549;-73
2022/02/24 01:55:34;;;;;;;15.95;8.35;;;;;;;5.05;69.29;100898.00;1797947;78;21010;-74
2022/02/24 01:58:02;;;;;;;15.08;8.23;;;;;;;5.03;69.38;100895.25;1778302;78;21006;-73
2022/02/24 02:00:29;;;;;;;11.03;7.47;;;;;;;5.00;69.50;100902.29;1793013;78;20999;-73
2022/02/24 02:02:55;;;;;;;13.00;8.05;;;;;;;4.96;69.55;100899.77;1785178;78;21455;-73
2022/02/24 02:05:23;;;;;;;13.98;8.23;;;;;;;4.88;69.64;100904.29;1783690;78;21584;-73
2022/02/24 02:07:49;;;;;;;12.45;8.20;;;;;;;4.81;69.74;100902.19;1778015;78;21832;-73
2022/02/24 02:10:17;;;;;;;11.05;8.05;;;;;;;4.74;69.89;100907.19;1779149;78;21053;-72
2022/02/24 02:12:47;;;;;;;13.45;8.03;;;;;;;4.70;70.01;100901.50;1779540;78;20974;-73
2022/02/24 02:15:13;;;;;;;14.80;8.90;;;;;;;4.63;70.15;100908.66;1785071;78;21007;-73
2022/02/24 02:17:41;;;;;;;15.83;9.23;;;;;;;4.57;70.33;100911.62;1783126;78;21461;-72
2022/02/24 02:20:09;;;;;;;15.20;8.50;;;;;;;4.56;70.46;100913.97;1784238;78;21144;-72
2022/02/24 02:22:36;;;;;;;11.35;7.87;;;;;;;4.53;70.59;100916.22;1776366;78;21045;-73
2022/02/24 02:25:06;;;;;;;13.30;9.33;;;;;;;4.49;70.74;100919.80;1780166;78;20974;-73
2022/02/24 02:27:34;;;;;;;15.03;9.70;;;;;;;4.48;70.87;100925.31;1772218;78;21172;-73
2022/02/24 02:30:01;;;;;;;13.98;9.63;;;;;;;4.53;70.97;100932.09;1765370;80;20954;-73
2022/02/24 02:32:28;;;;;;;16.70;10.15;;;;;;;4.57;71.09;100935.95;1764678;80;21560;-72
2022/02/24 02:34:55;;;;;;;15.72;9.33;;;;;;;4.61;71.20;100937.17;1764145;80;20930;-73
2022/02/24 02:37:22;;;;;;;16.02;9.60;;;;;;;4.67;71.24;100942.45;1765674;81;21568;-72
2022/02/24 02:39:49;;;;;;;14.53;9.08;;;;;;;4.73;71.33;100944.75;1765522;81;21037;-73
2022/02/24 02:42:15;;;;;;;14.45;9.13;;;;;;;4.82;71.35;100950.13;1765350;80;21522;-74
2022/02/24 02:44:42;;;;;;;13.95;8.53;;;;;;;4.88;71.34;100952.45;1765485;80;21019;-74
2022/02/24 02:47:09;;;;;;;12.53;8.35;;;;;;;4.88;71.34;100949.80;1779218;78;20979;-73
2022/02/24 02:49:38;;;;;;;13.65;9.20;;;;;;;4.86;71.37;100953.97;1786691;78;21497;-72
2022/02/24 02:52:05;;;;;;;15.48;9.23;;;;;;;4.83;71.38;100950.41;1795618;78;21069;-73
2022/02/24 02:54:33;;;;;;;15.30;9.33;;;;;;;4.80;71.43;100963.25;1797036;78;20959;-73
2022/02/24 02:57:01;;;;;;;14.00;8.65;;;;;;;4.73;71.49;100961.95;1796080;78;21579;-73
2022/02/24 02:59:27;;;;;;;13.62;8.90;;;;;;;4.67;71.58;100967.59;1795790;78;20986;-73
2022/02/24 03:01:54;;;;;;;14.28;9.45;;;;;;;4.64;71.73;100965.35;1796865;79;21331;-73
2022/02/24 03:04:21;;;;;;;15.72;10.30;;;;;;;4.66;71.82;100963.29;1796871;78;21530;-73
2022/02/24 03:06:50;;;;;;;13.48;9.35;;;;;;;4.68;71.88;100970.52;1796815;79;21592;-73
2022/02/24 03:09:17;;;;;;;14.43;9.63;;;;;;;4.70;71.92;100971.14;1796908;78;21453;-74
2022/02/24 03:11:43;;;;;;;15.55;9.65;;;;;;;4.70;71.99;100971.63;1797114;79;21003;-72
2022/02/24 03:14:10;;;;;;;16.12;10.13;;;;;;;4.74;72.05;100968.89;1796984;79;21117;-72
2022/02/24 03:16:37;;;;;;;15.72;10.75;;;;;;;4.77;72.07;100973.77;1797202;78;21450;-73
2022/02/24 03:19:04;;;;;;;21.62;10.75;;;;;;;4.82;72.12;100974.45;1798480;79;21023;-73
2022/02/24 03:21:30;;;;;;;16.95;10.40;;;;;;;4.90;72.14;100978.18;1797599;79;21450;-73
2022/02/24 03:23:57;;;;;;;17.65;10.58;;;;;;;4.96;72.05;100984.48;1765445;80;21514;-73
2022/02/24 03:26:24;;;;;;;14.43;9.38;;;;;;;4.99;72.00;100983.55;1765778;80;21058;-74
2022/02/24 03:28:50;;;;;;;15.08;10.20;;;;;;;5.00;71.93;100985.20;1765636;80;21513;-74
2022/02/24 03:31:18;;;;;;;16.12;10.60;;;;;;;5.00;71.90;100987.84;1765332;80;21074;-73
2022/02/24 03:33:44;;;;;;;14.13;9.58;;;;;;;5.03;71.97;100990.56;1765374;80;21129;-73
2022/02/24 03:36:11;;;;;;;15.65;10.13;;;;;;;5.10;72.02;100988.69;1775684;78;21038;-73
2022/02/24 03:38:38;;;;;;;17.40;10.40;;;;;;;5.17;71.95;100994.80;1785711;78;21632;-73
2022/02/24 03:41:04;;;;;;;16.17;10.00;;;;;;;5.23;71.87;100995.29;1781613;78;21029;-74
2022/02/24 03:43:31;;;;;;;16.12;11.05;;;;;;;5.28;71.78;100995.97;1792140;78;21041;-74
2022/02/24 03:45:58;;;;;;;18.80;11.22;;;;;;;5.33;71.72;100993.48;1780709;78;21771;-73
2022/02/24 03:48:25;;;;;;;20.15;11.35;;;;;;;5.39;71.62;100996.09;1782825;78;21128;-74
2022/02/24 03:50:52;;;;;;;20.82;11.80;;;;;;;5.46;71.51;100996.58;1781970;78;21077;-74
2022/02/24 03:53:19;;;;;;;18.90;11.50;;;;;;;5.49;71.35;100996.96;1786926;78;20999;-74
2022/02/24 03:55:46;;;;;;;23.95;13.18;;;;;;;5.49;71.20;100989.02;1786467;78;21074;-74
2022/02/24 03:58:13;;;;;;;22.27;12.65;;;;;;;5.46;71.03;100994.73;1782016;78;21125;-74
2022/02/24 04:00:40;;;;;;;20.17;11.18;;;;;;;5.43;70.96;100991.70;1783881;78;21057;-74
2022/02/24 04:03:07;;;;;;;19.65;11.63;;;;;;;5.44;70.85;100997.32;1777733;78;21106;-74
2022/02/24 04:05:34;;;;;;;18.57;11.55;;;;;;;5.34;70.76;100994.61;1779894;78;21012;-74
2022/02/24 04:08:01;;;;;;;21.65;11.97;;;;;;;5.30;70.78;100990.77;1781579;78;21174;-74
2022/02/24 04:10:27;;;;;;;21.55;12.73;;;;;;;5.32;70.88;100987.89;1780067;78;21603;-74
2022/02/24 04:12:56;;;;;;;20.17;12.07;;;;;;;5.38;70.92;100989.70;1785018;78;21569;-73
2022/02/24 04:15:23;;;;;;;19.20;12.13;;;;;;;5.39;70.83;100988.66;1779965;78;21097;-74
2022/02/24 04:17:50;;;;;;;18.48;12.43;;;;;;;5.40;70.80;100989.80;1782577;78;21480;-74
2022/02/24 04:20:18;;;;;;;21.65;12.80;;;;;;;5.43;70.77;100991.22;1768458;79;21512;-74
2022/02/24 04:22:44;;;;;;;21.57;13.62;;;;;;;5.45;70.73;100993.64;1796951;78;21178;-74
2022/02/24 04:25:11;;;;;;;22.50;14.05;;;;;;;5.48;70.70;100995.34;1786167;78;21011;-74
2022/02/24 04:27:49;;;;;;;25.25;14.85;;;;;;;5.49;70.59;101002.27;1784920;78;21034;-73
2022/02/24 04:30:17;;;;;;;27.93;15.78;;;;;;;5.49;70.54;101012.86;1790185;78;21050;-74
2022/02/24 04:32:43;;;;;;;28.90;17.40;;;;;;;5.50;70.47;101011.05;1787169;78;21061;-73
2022/02/24 04:35:11;;;;;;;23.20;14.05;;;;;;;5.48;70.40;101018.39;1788713;78;21110;-75
2022/02/24 04:37:38;;;;;;;22.75;13.83;;;;;;;5.46;70.34;101020.42;1784244;78;21054;-75
2022/02/24 04:40:08;;;;;;;18.57;11.97;;;;;;;5.44;70.30;101034.41;1783211;78;21100;-73
2022/02/24 04:42:34;;;;;;;15.78;11.15;;;;;;;5.38;70.28;101034.73;1792980;78;21795;-73
2022/02/24 04:45:02;;;;;;;16.23;10.35;;;;;;;5.32;70.33;101039.03;1783345;78;20994;-71
2022/02/24 04:47:29;;;;;;;18.98;11.28;;;;;;;5.30;70.36;101045.06;1787892;78;22079;-73
2022/02/24 04:49:56;;;;;;;17.42;10.50;;;;;;;5.28;70.40;101047.09;1786780;78;21089;-74
2022/02/24 04:52:22;;;;;;;14.80;10.78;;;;;;;5.26;70.45;101053.11;1790466;78;21194;-73
2022/02/24 04:54:49;;;;;;;17.12;10.82;;;;;;;5.25;70.49;101052.81;1785329;78;21058;-74
2022/02/24 04:57:16;;;;;;;15.25;10.23;;;;;;;5.23;70.46;101058.84;1781920;78;21034;-74
2022/02/24 04:59:43;;;;;;;16.07;10.20;;;;;;;5.18;70.46;101060.78;1775942;78;21802;-74
2022/02/24 05:02:10;;;;;;;13.80;10.00;;;;;;;5.16;70.54;101065.45;1778862;78;21045;-74
2022/02/24 05:04:36;;;;;;;15.93;10.43;;;;;;;5.18;70.62;101069.23;1765527;81;21018;-73
2022/02/24 05:07:04;;;;;;;17.20;10.65;;;;;;;5.21;70.66;101068.83;1771857;78;21050;-73
2022/02/24 05:09:32;;;;;;;14.78;10.18;;;;;;;5.25;70.65;101081.14;1790804;78;21066;-73
2022/02/24 05:12:00;;;;;;;16.35;10.35;;;;;;;5.26;70.69;101083.56;1789268;78;21120;-74
2022/02/24 05:14:27;;;;;;;17.95;11.48;;;;;;;5.27;70.71;101081.75;1779098;78;21037;-73
2022/02/24 05:16:54;;;;;;;15.90;10.65;;;;;;;5.30;70.71;101090.61;1791263;78;21576;-73
2022/02/24 05:19:21;;;;;;;16.48;11.03;;;;;;;5.32;70.75;101087.22;1780336;78;21073;-75
2022/02/24 05:21:47;;;;;;;17.85;10.63;;;;;;;5.35;70.73;101092.91;1785250;78;21045;-74
2022/02/24 05:24:15;;;;;;;16.25;10.72;;;;;;;5.36;70.68;101095.05;1781640;78;21092;-73
2022/02/24 05:26:42;;;;;;;16.00;10.18;;;;;;;5.29;70.72;101100.88;1782094;78;21537;-74
2022/02/24 05:29:08;;;;;;;16.52;10.80;;;;;;;5.30;70.87;101104.66;1781946;78;21025;-74
2022/02/24 05:31:35;;;;;;;17.48;10.40;;;;;;;5.33;70.94;101112.19;1781620;78;21007;-72
2022/02/24 05:34:02;;;;;;;15.08;10.43;;;;;;;5.36;70.92;101119.72;1790346;78;21117;-73
2022/02/24 05:36:29;;;;;;;15.10;10.93;;;;;;;5.37;70.91;101130.61;1777453;78;21552;-73
2022/02/24 05:38:56;;;;;;;17.57;11.45;;;;;;;5.34;70.84;101128.37;1779613;78;21497;-73
2022/02/24 05:41:24;;;;;;;17.87;12.10;;;;;;;5.32;70.87;101135.70;1781625;78;20987;-73
2022/02/24 05:43:51;;;;;;;17.57;11.65;;;;;;;5.33;70.93;101136.03;1779498;78;20998;-73
2022/02/24 05:46:18;;;;;;;15.63;11.20;;;;;;;5.35;70.95;101141.91;1784663;78;21046;-73
2022/02/24 05:48:45;;;;;;;18.02;11.90;;;;;;;5.38;70.99;101149.97;1779456;78;21518;-73
2022/02/24 05:51:11;;;;;;;17.27;11.45;;;;;;;5.40;71.02;101154.05;1779004;78;21065;-73
2022/02/24 05:53:38;;;;;;;18.07;12.33;;;;;;;5.44;71.05;101154.95;1777237;78;21100;-73
2022/02/24 05:56:06;;;;;;;18.42;12.65;;;;;;;5.46;71.03;101156.86;1765372;80;21516;-73
2022/02/24 05:58:33;;;;;;;15.78;11.93;;;;;;;5.47;70.96;101165.94;1767342;78;21049;-73
2022/02/24 06:01:00;;;;;;;19.60;13.70;;;;;;;5.46;70.95;101166.14;1785241;78;21501;-73
2022/02/24 06:03:27;;;;;;;19.52;13.48;;;;;;;5.48;70.93;101169.41;1778049;78;21513;-73
2022/02/24 06:05:56;;;;;;;18.85;13.43;;;;;;;5.49;70.97;101168.38;1784220;78;21057;-74
2022/02/24 06:08:23;;;;;;;18.87;14.13;;;;;;;5.56;71.02;101177.11;1787241;78;20982;-73
2022/02/24 06:10:51;;;;;;;17.75;13.50;;;;;;;5.59;70.99;101176.70;1779877;78;21126;-74
2022/02/24 06:13:18;;;;;;;21.02;14.70;;;;;;;5.55;70.90;101184.77;1781899;78;21529;-74
2022/02/24 06:15:46;;;;;;;17.92;14.00;;;;;;;5.53;70.89;101185.50;1787739;78;21010;-74
2022/02/24 06:18:18;;;;;;;21.50;14.68;;;;;;;5.53;70.87;101190.80;1776646;78;21160;-74
2022/02/24 06:20:42;;;;;;;18.07;13.48;;;;;;;5.51;70.86;101190.19;1778745;78;21485;-74
2022/02/24 06:23:09;;;;;;;21.27;14.93;;;;;;;5.50;70.90;101198.66;1781712;78;21045;-73
2022/02/24 06:25:35;;;;;;;17.80;13.90;;;;;;;5.47;70.94;101198.25;1785673;78;21576;-73
2022/02/24 06:28:03;;;;;;;21.07;15.30;;;;;;;5.46;70.98;101201.91;1779784;78;21002;-74
2022/02/24 06:30:30;;;;;;;21.37;15.78;;;;;;;5.42;71.00;101205.48;1786609;78;21065;-74
2022/02/24 06:32:56;;;;;;;21.23;15.35;;;;;;;5.38;71.10;101205.08;1784507;78;20995;-74
2022/02/24 06:35:23;;;;;;;20.72;15.83;;;;;;;5.35;71.13;101205.49;1769476;78;21604;-74
2022/02/24 06:37:50;;;;;;;22.02;16.32;;;;;;;5.32;71.22;101209.87;1765790;80;21113;-74
2022/02/24 06:40:16;;;;;;;22.50;15.75;;;;;;;5.27;71.31;101209.69;1779096;78;21149;-74
2022/02/24 06:42:43;;;;;;;19.45;15.25;;;;;;;5.28;71.47;101212.64;1787683;78;21532;-73
2022/02/24 06:45:13;;;;;;;22.58;14.83;;;;;;;5.31;71.58;101217.53;1788898;78;21281;-74
2022/02/24 06:47:39;;;;;;;20.12;14.20;;;;;;;5.33;71.66;101216.82;1783873;78;21093;-73
2022/02/24 06:50:07;;;;;;;22.50;15.68;;;;;;;5.35;71.72;101222.71;1780419;78;21735;-73
2022/02/24 06:52:36;;;;;;;21.17;15.10;;;;;;;5.36;71.77;101227.01;1783673;78;21038;-73
2022/02/24 06:55:07;;;;;;;21.05;15.05;;;;;;;5.39;71.83;101225.76;1793395;78;21029;-74
2022/02/24 06:57:39;;;;;;;22.65;17.07;;;;;;;5.47;71.91;101234.83;1777337;78;21007;-73
2022/02/24 07:00:07;;;;;;;19.57;15.32;;;;;;;5.54;71.80;101238.28;1783211;78;27620;-73
2022/02/24 07:02:35;;;;;;;21.48;15.58;;;;;;;5.61;71.74;101234.29;1788678;78;21043;-74
2022/02/24 07:05:04;;;;;;;21.07;14.95;;;;;;;5.66;71.63;101243.77;1768877;78;20955;-73
2022/02/24 07:07:34;;;;;;;22.77;15.95;;;;;;;5.67;71.56;101247.23;1765426;80;20995;-74
2022/02/24 07:10:04;;;;;;;22.48;16.30;;;;;;;5.68;71.55;101251.50;1768230;78;20983;-73
2022/02/24 07:12:32;;;;;;;22.75;15.65;;;;;;;5.68;71.47;101250.98;1737085;81;20947;-74
2022/02/24 07:14:59;;;;;;;19.85;14.25;;;;;;;5.68;71.45;101256.29;1771381;78;21138;-74
2022/02/24 07:17:26;;;;;;;22.13;15.90;;;;;;;5.72;71.48;101257.50;1781041;78;21667;-75
2022/02/24 07:19:53;;;;;;;21.57;16.05;;;;;;;5.79;71.40;101259.64;1772052;78;20958;-75
2022/02/24 07:22:21;;;;;;;22.48;16.35;;;;;;;5.87;71.32;101260.73;1765374;80;20986;-73
2022/02/24 07:24:48;;;;;;;20.37;15.63;;;;;;;5.94;71.08;101263.91;1769661;78;21057;-74
2022/02/24 07:27:14;;;;;;;21.30;15.85;;;;;;;5.96;70.93;101260.55;1779628;78;21501;-73
2022/02/24 07:29:41;;;;;;;22.27;15.53;;;;;;;5.98;70.82;101267.77;1772695;78;21026;-74
2022/02/24 07:32:10;;;;;;;20.97;15.60;;;;;;;6.01;70.75;101262.05;1787716;78;21643;-74
2022/02/24 07:34:37;;;;;;;19.37;15.00;;;;;;;6.02;70.64;101271.63;1783054;78;21167;-73
2022/02/24 07:37:04;;;;;;;24.07;16.00;;;;;;;5.99;70.55;101272.03;1777714;78;21502;-73
2022/02/24 07:39:31;;;;;;;23.07;15.90;;;;;;;5.92;70.60;101271.22;1781648;78;21135;-73
2022/02/24 07:41:58;;;;;;;22.35;16.30;;;;;;;5.90;70.71;101283.89;1780185;78;21742;-73
2022/02/24 07:44:24;;;;;;;24.95;17.02;;;;;;;5.92;70.79;101279.17;1779044;78;21042;-73
2022/02/24 07:46:51;;;;;;;21.35;15.75;;;;;;;5.96;70.81;101281.77;1779036;78;21027;-73
2022/02/24 07:49:22;;;;;;;20.27;15.65;;;;;;;6.00;70.80;101282.45;1785764;78;21513;-74
2022/02/24 07:51:51;;;;;;;22.65;16.57;;;;;;;6.06;70.79;101284.27;1790392;78;21180;-74
2022/02/24 07:54:19;;;;;;;20.72;15.83;;;;;;;6.10;70.66;101284.66;1776744;78;20922;-74
2022/02/24 07:56:46;;;;;;;21.62;15.95;;;;;;;6.13;70.60;101293.53;1765100;80;21035;-74
2022/02/24 07:59:14;;;;;;;21.85;15.80;;;;;;;6.15;70.53;101292.79;1765077;80;21095;-74
2022/02/24 08:01:41;;;;;;;21.77;16.30;;;;;;;6.14;70.38;101293.83;1763510;80;21042;-74
2022/02/24 08:04:08;;;;;;;20.68;15.43;;;;;;;6.11;70.34;101299.55;1783458;78;21186;-74
2022/02/24 08:06:35;;;;;;;23.07;16.00;;;;;;;6.13;70.40;101300.68;1788613;78;21045;-74
2022/02/24 08:09:02;;;;;;;20.32;15.50;;;;;;;6.17;70.45;101304.02;1783931;78;21563;-74
2022/02/24 08:11:29;;;;;;;19.70;15.13;;;;;;;6.23;70.49;101305.84;1765133;80;21000;-73
2022/02/24 08:13:56;;;;;;;20.85;15.58;;;;;;;6.21;70.37;101301.24;1767808;78;21055;-74
2022/02/24 08:16:23;;;;;;;23.18;16.17;;;;;;;6.23;70.44;101313.80;1790874;79;21479;-74
2022/02/24 08:18:49;;;;;;;20.55;16.37;;;;;;;6.23;70.39;101319.10;1796864;79;20994;-75
2022/02/24 08:21:16;;;;;;;22.32;16.70;;;;;;;6.16;70.32;101318.31;1784255;78;21090;-74
2022/02/24 08:23:43;;;;;;;21.55;16.37;;;;;;;6.09;70.35;101317.01;1789321;78;21442;-74
2022/02/24 08:26:10;;;;;;;21.77;16.80;;;;;;;6.01;70.43;101321.71;1767213;78;21416;-74
2022/02/24 08:28:37;;;;;;;21.68;16.80;;;;;;;5.97;70.64;101320.50;1765118;80;21523;-73
2022/02/24 08:31:04;;;;;;;19.87;16.07;;;;;;;5.95;70.77;101324.67;1775601;78;21414;-75
2022/02/24 08:33:31;;;;;;;21.60;16.42;;;;;;;5.96;70.90;101328.97;1780475;78;21655;-74
2022/02/24 08:35:58;;;;;;;23.60;17.35;;;;;;;5.90;71.00;101323.66;1782212;77;21060;-75
2022/02/24 08:38:25;;;;;;;26.82;19.50;;;;;;;5.88;71.19;101331.80;1783788;78;21066;-75
2022/02/24 08:40:51;;;;;;;25.30;18.95;;;;;;;5.90;71.32;101331.61;1783549;78;21769;-75
2022/02/24 08:43:22;;;;;;;24.43;19.05;;;;;;;5.90;71.36;101332.42;1779262;78;21003;-76
2022/02/24 08:45:48;;;;;;;23.73;17.82;;;;;;;5.84;71.42;101339.35;1774194;78;21043;-75
2022/02/24 08:48:15;;;;;;;25.08;17.55;;;;;;;5.84;71.72;101336.70;1765736;80;21052;-77
2022/02/24 08:50:42;;;;;;;22.85;17.85;;;;;;;5.93;71.90;101332.04;1769938;78;21151;-76
2022/02/24 08:53:10;;;;;;;22.17;17.32;;;;;;;6.04;72.00;101335.37;1793209;78;20924;-76
2022/02/24 08:55:37;;;;;;;23.50;17.70;;;;;;;6.16;72.05;101332.09;1796212;78;21018;-75
2022/02/24 08:58:05;;;;;;;25.10;18.32;;;;;;;6.28;72.04;101333.86;1799300;78;21406;-75
2022/02/24 09:00:33;;;;;;;24.10;18.15;;;;;;;6.42;71.98;101329.86;1790106;78;20987;-76
2022/02/24 09:03:00;;;;;;;22.85;17.60;;;;;;;6.55;71.87;101333.80;1784107;78;21050;-75
2022/02/24 09:05:27;;;;;;;23.65;18.73;;;;;;;6.65;71.67;101330.17;1786204;78;21951;-76
2022/02/24 09:07:54;;;;;;;25.82;19.87;;;;;;;6.72;71.52;101328.29;1785759;78;21093;-75
2022/02/24 09:10:21;;;;;;;23.47;18.87;;;;;;;6.82;71.35;101334.47;1770614;79;21105;-75
2022/02/24 09:12:48;;;;;;;27.40;20.50;;;;;;;6.87;71.18;101330.64;1765525;80;21056;-74
2022/02/24 09:15:15;;;;;;;25.90;20.60;;;;;;;6.91;70.91;101337.67;1782813;78;21620;-75
2022/02/24 09:17:43;;;;;;;26.87;20.77;;;;;;;6.92;70.68;101332.16;1784497;78;21551;-75
2022/02/24 09:20:11;;;;;;;27.98;21.20;;;;;;;6.99;70.70;101336.91;1777352;78;21125;-75
2022/02/24 09:22:38;;;;;;;30.90;22.05;;;;;;;7.02;70.48;101332.50;1781062;78;21003;-74
2022/02/24 09:25:06;;;;;;;27.32;20.95;;;;;;;7.03;70.25;101334.64;1783800;78;21796;-74
2022/02/24 09:27:35;;;;;;;27.07;21.55;;;;;;;7.05;69.97;101333.41;1781481;78;21493;-74
2022/02/24 09:30:04;;;;;;;27.82;20.62;;;;;;;7.06;69.72;101331.56;1781580;78;21979;-74
2022/02/24 09:32:34;;;;;;;27.62;21.00;;;;;;;7.11;69.61;101333.07;1767721;78;21002;-74
2022/02/24 09:35:01;;;;;;;26.23;20.08;;;;;;;7.16;69.33;101331.89;1772682;78;20966;-75
2022/02/24 09:37:34;;;;;;;23.77;18.62;;;;;;;7.18;69.09;101335.69;1778382;78;21038;-74
2022/02/24 09:39:57;;;;;;;26.07;20.00;;;;;;;7.16;68.75;101331.89;1782614;78;21462;-75
2022/02/24 09:42:24;;;;;;;22.95;17.67;;;;;;;7.14;68.60;101337.95;1785642;78;21512;-75
2022/02/24 09:44:51;;;;;;;21.87;16.47;;;;;;;7.12;68.50;101333.36;1648263;78;9999779;-75
2022/02/24 09:47:17;;;;;;;18.90;14.10;;;;;;;7.05;68.33;101331.27;1785380;79;21134;-74
2022/02/24 09:49:45;;;;;;;16.57;13.13;;;;;;;7.01;68.33;101331.41;1781695;78;21017;-75
2022/02/24 09:52:11;;;;;;;15.00;12.95;;;;;;;6.99;68.33;101334.77;1786847;79;21496;-75
2022/02/24 09:54:38;;;;;;;14.00;11.43;;;;;;;6.99;68.35;101332.12;1794691;79;21635;-75
2022/02/24 09:57:05;;;;;;;15.85;12.50;;;;;;;6.96;68.16;101330.70;1784365;78;21094;-76
2022/02/24 09:59:32;;;;;;;19.95;12.73;;;;;;;6.93;68.14;101334.30;1807725;78;21130;-75
2022/02/24 10:02:00;;;;;;;16.20;12.65;;;;;;;6.90;68.12;101326.75;1789627;78;21038;-75
2022/02/24 10:04:27;;;;;;;17.85;13.43;;;;;;;6.89;68.19;101338.41;1793356;78;21147;-76
2022/02/24 10:06:53;;;;;;;19.27;14.55;;;;;;;6.87;68.23;101333.81;1790010;79;21074;-77
2022/02/24 10:09:31;;;;;;;15.68;13.68;;;;;;;6.87;68.36;101333.30;1764018;79;21054;-77
2022/02/24 10:12:07;;;;;;;17.75;14.93;;;;;;;6.87;68.35;101335.14;1790114;79;21553;-76
2022/02/24 10:14:35;;;;;;;17.90;14.93;;;;;;;6.84;68.26;101336.89;1777205;79;21106;-75
2022/02/24 10:17:08;;;;;;;17.20;14.33;;;;;;;6.81;68.23;101335.47;1778529;78;21118;-76
2022/02/24 10:19:47;;;;;;;17.70;14.45;;;;;;;6.79;68.26;101334.38;1791140;79;21010;-75
2022/02/24 10:22:24;;;;;;;19.95;15.35;;;;;;;6.77;68.24;101344.38;1789691;78;21054;-75
2022/02/24 10:25:00;;;;;;;20.27;15.70;;;;;;;6.76;68.32;101343.28;1749376;79;21006;-76
2022/02/24 10:27:35;;;;;;;19.60;15.58;;;;;;;6.75;68.43;101339.81;1769986;79;21021;-76
2022/02/24 10:30:13;;;;;;;20.68;16.70;;;;;;;6.77;68.55;101332.44;1728506;81;21791;-76
2022/02/24 10:32:49;;;;;;;23.40;17.00;;;;;;;6.80;68.55;101341.82;1781183;79;21159;-76
2022/02/24 10:35:31;;;;;;;22.80;16.20;;;;;;;6.78;68.55;101331.95;1791758;79;21026;-77
2022/02/24 10:38:11;;;;;;;26.15;18.52;;;;;;;6.72;68.47;101327.48;1790742;79;21047;-75
2022/02/24 10:40:49;;;;;;;25.80;18.67;;;;;;;6.68;68.58;101331.08;1792256;78;21034;-76
2022/02/24 10:43:22;;;;;;;25.20;18.07;;;;;;;6.71;68.79;101328.48;1792738;79;21946;-75
2022/02/24 10:46:17;;;;;;;27.55;20.32;;;;;;;6.79;68.88;101331.72;1788259;78;20926;-75
2022/02/24 10:48:54;;;;;;;25.80;18.95;;;;;;;6.87;68.86;101327.18;1789618;78;21057;-76
2022/02/24 10:51:31;;;;;;;27.00;19.92;;;;;;;6.93;68.88;101327.66;1790015;78;21050;-75
2022/02/24 10:54:13;;;;;;;22.65;16.02;;;;;;;6.99;68.77;101321.50;1792655;79;21050;-76
2022/02/24 10:56:42;;;;;;;23.45;17.50;;;;;;;7.05;68.68;101328.61;1791903;79;21501;-76
2022/02/24 10:59:09;;;;;;;25.00;18.07;;;;;;;7.02;68.28;101323.20;1788748;78;21030;-76
2022/02/24 11:01:38;;;;;;;25.92;19.05;;;;;;;6.99;68.29;101321.50;1793012;78;21495;-76
2022/02/24 11:04:06;;;;;;;26.55;19.10;;;;;;;7.00;68.30;101322.59;1768621;78;21011;-75
2022/02/24 11:06:36;;;;;;;28.07;18.85;;;;;;;7.02;68.26;101319.22;1780592;79;21173;-75
2022/02/24 11:09:06;;;;;;;25.02;19.05;;;;;;;7.03;68.28;101321.36;1795546;78;21565;-76
2022/02/24 11:11:35;;;;;;;24.40;17.70;;;;;;;7.07;68.14;101315.91;1807741;77;21082;-76
2022/02/24 11:14:06;;;;;;;26.60;17.90;;;;;;;7.11;68.08;101316.29;1792085;78;21042;-77
2022/02/24 11:16:34;;;;;;;25.82;18.90;;;;;;;7.12;68.01;101317.42;1780156;78;21112;-75
2022/02/24 11:19:01;;;;;;;27.90;20.05;;;;;;;7.16;68.10;101323.92;1784581;79;21323;-75
2022/02/24 11:21:29;;;;;;;25.85;20.12;;;;;;;7.23;68.14;101321.22;1786623;79;21022;-77